createdAt,value
2019-03-25T14:01:11.193Z,9.60
2019-03-25T14:03:42.503Z,9.40
2019-03-25T14:06:14.374Z,9.75
2019-03-25T14:08:45.536Z,9.20
2019-03-25T14:11:16.661Z,9.63
2019-03-25T14:13:49.525Z,9.50
2019-03-25T14:16:20.815Z,9.35
2019-03-25T14:18:52.964Z,10.15
2019-03-25T14:21:24.865Z,9.80
2019-03-25T14:23:56.385Z,10.10
2019-03-25T14:29:01.222Z,9.00
2019-03-25T14:31:32.654Z,9.35
2019-03-25T14:34:04.016Z,9.10
2019-03-25T14:36:35.520Z,8.93
2019-03-25T14:41:38.418Z,8.45
2019-03-25T14:44:09.537Z,9.13
2019-03-25T14:46:40.663Z,10.05
2019-03-25T14:49:11.577Z,8.35
2019-03-25T14:51:43.239Z,9.38
2019-03-25T14:54:15.379Z,9.03
2019-03-25T14:56:46.148Z,8.88
2019-03-25T14:59:17.291Z,8.95
2019-03-25T15:01:48.623Z,9.30
2019-03-25T15:04:20.043Z,9.75
2019-03-25T15:09:21.635Z,8.95
2019-03-25T15:11:52.430Z,8.38
2019-03-25T15:14:24.754Z,8.88
2019-03-25T15:17:10.097Z,9.00
2019-03-25T15:19:42.555Z,8.93
2019-03-25T15:22:14.941Z,9.33
2019-03-25T15:24:46.292Z,9.70
2019-03-25T15:27:17.891Z,9.03
2019-03-25T15:29:49.197Z,9.18
2019-03-25T15:32:23.399Z,9.55
2019-03-25T15:34:55.248Z,9.65
2019-03-25T15:37:25.888Z,9.58
2019-03-25T15:39:56.872Z,10.73
2019-03-25T15:42:28.118Z,9.90
2019-03-25T15:45:01.533Z,9.30
2019-03-25T15:47:33.595Z,9.45
2019-03-25T15:50:04.808Z,9.38
2019-03-25T15:55:08.425Z,9.23
2019-03-25T15:57:39.861Z,9.70
2019-03-25T16:00:20.432Z,9.10
2019-03-25T16:02:52.505Z,9.93
2019-03-25T16:05:23.904Z,9.45
2019-03-25T16:07:55.207Z,9.63
2019-03-25T16:13:02.958Z,9.35
2019-03-25T16:15:35.974Z,10.05
2019-03-25T16:18:09.294Z,9.08
2019-03-25T16:20:40.950Z,8.93
2019-03-25T16:23:12.125Z,9.18
2019-03-25T16:25:44.559Z,9.85
2019-03-25T16:28:18.488Z,9.30
2019-03-25T16:30:58.801Z,9.68
2019-03-25T16:33:26.310Z,9.38
2019-03-25T16:35:57.819Z,9.30
2019-03-25T16:38:29.049Z,9.83
2019-03-25T16:41:01.112Z,9.33
2019-03-25T16:43:32.884Z,10.38
2019-03-25T16:46:06.104Z,10.15
2019-03-25T16:48:37.864Z,10.75
2019-03-25T16:51:09.833Z,9.75
2019-03-25T16:53:41.085Z,10.65
2019-03-25T16:56:18.867Z,9.90
2019-03-25T16:58:50.524Z,10.00
2019-03-25T17:03:53.012Z,10.13
2019-03-25T17:08:54.867Z,9.60
2019-03-25T17:14:05.330Z,9.68
2019-03-25T17:16:36.968Z,9.33
2019-03-25T17:21:41.787Z,10.03
2019-03-25T17:24:14.402Z,8.23
2019-03-25T17:26:52.672Z,8.80
2019-03-25T17:29:23.984Z,9.55
2019-03-25T17:31:55.562Z,8.73
2019-03-25T17:34:32.552Z,9.25
2019-03-25T17:37:04.234Z,9.30
2019-03-25T17:39:35.557Z,8.75
2019-03-25T17:42:07.148Z,9.93
2019-03-25T17:44:45.734Z,9.90
2019-03-25T17:47:16.909Z,9.33
2019-03-25T17:49:54.724Z,10.25
2019-03-25T17:55:15.227Z,8.85
2019-03-25T18:00:33.779Z,8.25
2019-03-25T18:03:11.239Z,9.95
2019-03-25T18:05:39.851Z,10.08
2019-03-25T18:08:11.123Z,8.30
2019-03-25T18:10:44.335Z,10.25
2019-03-25T18:13:22.307Z,8.65
2019-03-25T18:15:53.962Z,8.93
2019-03-25T18:18:25.523Z,9.88
2019-03-25T18:20:57.257Z,9.60
2019-03-25T18:23:29.734Z,10.35
2019-03-25T18:26:01.378Z,9.33
2019-03-25T18:28:32.706Z,7.87
2019-03-25T18:31:05.331Z,9.60
2019-03-25T18:33:36.629Z,8.40
2019-03-25T18:38:39.057Z,10.25
2019-03-25T18:41:17.788Z,8.55
2019-03-25T18:43:49.500Z,10.45
2019-03-25T18:46:24.179Z,9.00
2019-03-25T18:49:02.461Z,9.10
2019-03-25T18:51:35.911Z,9.20
2019-03-25T18:54:07.048Z,9.40
2019-03-25T18:56:39.526Z,9.45
2019-03-25T18:59:11.136Z,15.15
2019-03-25T19:01:42.235Z,16.27
2019-03-25T19:04:13.808Z,9.78
2019-03-25T19:06:47.478Z,17.92
2019-03-25T19:09:31.104Z,10.35
2019-03-25T19:12:03.038Z,17.65
2019-03-25T19:14:34.231Z,13.53
2019-03-25T19:17:06.262Z,21.50
2019-03-25T19:19:44.494Z,22.37
2019-03-25T19:22:22.938Z,21.82
2019-03-25T19:24:55.846Z,22.70
2019-03-25T19:27:28.968Z,25.17
2019-03-25T19:30:00.698Z,29.77
2019-03-25T19:32:41.722Z,26.85
2019-03-25T19:35:13.689Z,28.97
2019-03-25T19:37:47.155Z,32.67
2019-03-25T19:40:18.507Z,17.82
2019-03-25T19:42:56.714Z,60.73
2019-03-25T19:45:29.105Z,43.42
2019-03-25T19:48:06.812Z,57.85
2019-03-25T19:50:38.766Z,48.33
2019-03-25T19:53:18.967Z,39.88
2019-03-25T19:55:49.762Z,39.08
2019-03-25T19:58:25.658Z,20.72
2019-03-25T20:00:58.458Z,39.53
2019-03-25T20:03:32.854Z,39.05
2019-03-25T20:06:08.745Z,38.38
2019-03-25T20:08:46.696Z,22.13
2019-03-25T20:11:17.615Z,37.05
2019-03-25T20:13:55.850Z,39.73
2019-03-25T20:16:33.766Z,37.58
2019-03-25T20:19:05.085Z,37.45
2019-03-25T20:21:36.215Z,36.63
2019-03-25T20:24:07.516Z,37.90
2019-03-25T20:26:38.752Z,35.75
2019-03-25T20:29:09.968Z,33.38
2019-03-25T20:31:40.631Z,36.15
2019-03-25T20:34:12.274Z,33.80
2019-03-25T20:39:19.291Z,30.12
2019-03-25T20:44:23.177Z,38.00
2019-03-25T20:46:55.449Z,33.98
2019-03-25T20:49:27.479Z,35.92
2019-03-25T20:51:59.184Z,31.12
2019-03-25T20:57:01.073Z,31.62
2019-03-25T20:59:40.707Z,36.58
2019-03-25T21:02:11.950Z,38.10
2019-03-25T21:04:43.234Z,23.95
2019-03-25T21:09:45.219Z,39.15
2019-03-25T21:12:16.709Z,37.90
2019-03-25T21:17:17.409Z,34.92
2019-03-25T21:19:51.160Z,39.40
2019-03-25T21:22:22.251Z,40.63
2019-03-25T21:24:53.836Z,42.55
2019-03-25T21:29:55.990Z,42.55
2019-03-25T21:32:33.641Z,25.70
2019-03-25T21:35:05.578Z,36.03
2019-03-25T21:37:38.901Z,44.00
2019-03-25T21:40:18.627Z,42.25
2019-03-25T21:42:55.072Z,42.45
2019-03-25T21:45:26.551Z,42.40
2019-03-25T21:50:35.696Z,43.17
2019-03-25T21:53:07.324Z,41.13
2019-03-25T21:55:38.573Z,38.00
2019-03-25T21:58:10.417Z,40.23
2019-03-25T22:00:41.750Z,40.88
2019-03-25T22:03:25.205Z,41.70
2019-03-25T22:06:03.783Z,30.62
2019-03-25T22:08:41.640Z,37.35
2019-03-25T22:11:19.747Z,39.55
2019-03-25T22:13:51.302Z,37.20
2019-03-25T22:16:29.743Z,40.78
2019-03-25T22:19:01.075Z,35.50
2019-03-25T22:21:33.332Z,39.90
2019-03-25T22:24:12.039Z,41.30
2019-03-25T22:26:49.898Z,37.93
2019-03-25T22:29:21.661Z,41.73
2019-03-25T22:31:53.277Z,41.02
2019-03-25T22:34:30.807Z,43.50
2019-03-25T22:37:08.921Z,42.05
2019-03-25T22:39:39.887Z,43.52
2019-03-25T22:42:11.131Z,42.93
2019-03-25T22:44:42.496Z,44.60
